Nearby METAR Reports

 

KCMA - Camarillo, California, USA
Distance from station: WSW 4mi, 7km
Updated: Tue, 20-Aug-2019 9:55am PDT
Clear
Clear
 Wind from varies
Wind: varies 3 mph , 6 km/h
Temperature: 72°F , 22°C
Dew Point: 59°F , 15°C
Humidity: 65%
Barometer: 29.96 inHg , 1014.6 hPa
Clouds: Clear
Visibility: 10 miles , 16 km
2019/08/20 16:55 KCMA 201655Z VRB03KT 10SM CLR 22/15 A2996 RMK AO2 SLP152 T02220150
KNTD - Point Mugu Nas, California, USA
Distance from station: SSW 9mi, 15km
Updated: Tue, 20-Aug-2019 9:57am PDT
Few Clouds
Few Clouds
 Wind from W
Wind: W 10 mph , 17 km/h
Temperature: 70°F , 21°C
Dew Point: 63°F , 17°C
Humidity: 78%
Barometer: 29.97 inHg , 1014.9 hPa
Clouds: Few Clouds
Visibility: 10 miles , 16 km
Cloud details: Few Clouds 800 ft
2019/08/20 16:57 KNTD 201657Z 28009KT 10SM FEW008 21/17 A2997 RMK AO2 SLP149 T02060167 PNO $
 
KOXR - Oxnard, California, USA
Distance from station: WSW 10mi, 16km
Updated: Tue, 20-Aug-2019 9:51am PDT
Partly cloudy
Partly cloudy
 Wind from WNW
Wind: WNW 8 mph , 13 km/h
Temperature: 68°F , 20°C
Dew Point: 61°F , 16°C
Humidity: 78%
Barometer: 29.96 inHg , 1014.6 hPa
Clouds: Partly cloudy
Visibility: 10 miles , 16 km
Cloud details: Partly cloudy 900 ft
2019/08/20 16:51 KOXR 201651Z 29007KT 10SM SCT009 20/16 A2996 RMK AO2 SLP146 T02000156
KVNY - Van Nuys, California, USA
Distance from station: E 31mi, 50km
Updated: Tue, 20-Aug-2019 9:51am PDT
Clear
Clear
 Wind from E
Wind: E 3 mph , 6 km/h
Temperature: 79°F , 26°C
Dew Point: 55°F , 13°C
Humidity: 45%
Barometer: 29.95 inHg , 1014.2 hPa
Clouds: Clear
Visibility: 10 miles , 16 km
2019/08/20 16:51 KVNY 201651Z 10003KT 10SM CLR 26/13 A2995 RMK AO2 SLP134 T02610133
 
KWHP - La / Whiteman, California, USA
Distance from station: E 35mi, 56km
Updated: Tue, 20-Aug-2019 9:50am PDT
Clear
Clear
 Wind from calm
Wind: Calm
Temperature: 75°F , 24°C
Dew Point: 52°F , 11°C
Humidity: 44%
Barometer: 30.00 inHg , 1015.9 hPa
Clouds: Clear
Visibility: 10 miles , 16 km
2019/08/20 16:50 KWHP 201650Z 00000KT 10SM SKC 24/11 A3000
KSMO - Santa Monica, California, USA
Distance from station: ESE 36mi, 58km
Updated: Tue, 20-Aug-2019 9:51am PDT
Clear
Clear
 Wind from varies
Wind: varies 5 mph , 7 km/h
Temperature: 73°F , 23°C
Dew Point: 63°F , 17°C
Humidity: 69%
Barometer: 29.95 inHg , 1014.2 hPa
Clouds: Clear
Visibility: 10 miles , 16 km
2019/08/20 16:51 KSMO 201651Z VRB04KT 10SM CLR 23/17 A2995 RMK AO2 SLP141 T02280172
 
KBUR - Burbank, California, USA
Distance from station: E 38mi, 61km
Updated: Tue, 20-Aug-2019 9:53am PDT
Clear
Clear
 Wind from S
Wind: S 5 mph , 7 km/h
Temperature: 75°F , 24°C
Dew Point: 55°F , 13°C
Humidity: 50%
Barometer: 29.96 inHg , 1014.6 hPa
Clouds: Clear
Visibility: 10 miles , 16 km
2019/08/20 16:53 KBUR 201653Z 17004KT 10SM CLR 24/13 A2996 RMK AO2 SLP132 T02390133 $
KSDB - Sandberg, California, USA
Distance from station: NNE 40mi, 64km
Updated: Tue, 20-Aug-2019 9:53am PDT
Clear
Clear
 Wind from SSW
Wind: SSW 9 mph , 15 km/h
Temperature: 77°F , 25°C
Dew Point: 41°F , 5°C
Humidity: 28%
Barometer: 30.15 inHg , 1021 hPa
Clouds: Clear
Visibility: 10 miles , 16 km
2019/08/20 16:53 KSDB 201653Z AUTO 20008KT 10SM CLR 25/05 A3015 RMK AO2 SLP152 T02500050
 
KLAX - Los Angeles, California, USA
Distance from station: ESE 42mi, 68km
Updated: Tue, 20-Aug-2019 9:53am PDT
Clear
Clear
 Wind from varies
Wind: varies 3 mph , 6 km/h
Temperature: 75°F , 24°C
Dew Point: 63°F , 17°C
Humidity: 65%
Barometer: 29.95 inHg , 1014.2 hPa
Clouds: Clear
Visibility: 10 miles , 16 km
2019/08/20 16:53 KLAX 201653Z VRB03KT 10SM CLR 24/17 A2995 RMK AO2 SLP141 T02440167
KCQT - Los Angeles, California, USA
Distance from station: ESE 45mi, 73km
Updated: Tue, 20-Aug-2019 9:52am PDT
Haze, Clear
Haze, Clear
 Wind from calm
Wind: Calm
Temperature: 79°F , 26°C
Dew Point: 61°F , 16°C
Humidity: 54%
Barometer: 29.94 inHg , 1013.9 hPa
Summary: Haze
Clouds: Clear
Visibility: 6 miles , 10 km
2019/08/20 16:52 KCQT 201652Z AUTO 00000KT 6SM HZ CLR 26/16 A2994 RMK AO2 SLP136 T02560161 $
 
KHHR - Hawthorne, California, USA
Distance from station: ESE 45mi, 73km
Updated: Tue, 20-Aug-2019 9:53am PDT
Clear
Clear
 Wind from varies
Wind: varies 3 mph , 6 km/h
Temperature: 73°F , 23°C
Dew Point: 61°F , 16°C
Humidity: 65%
Barometer: 29.95 inHg , 1014.2 hPa
Clouds: Clear
Visibility: 9 miles , 14 km
2019/08/20 16:53 KHHR 201653Z VRB03KT 9SM CLR 23/16 A2995 RMK AO2 SLP141 T02330161
KSBA - Santa Barbara, California, USA
Distance from station: WNW 49mi, 79km
Updated: Tue, 20-Aug-2019 9:53am PDT
Few Clouds
Few Clouds
 Wind from SSE
Wind: SSE 9 mph , 15 km/h
Temperature: 68°F , 20°C
Dew Point: 61°F , 16°C
Humidity: 78%
Barometer: 29.96 inHg , 1014.6 hPa
Clouds: Few Clouds
Visibility: 10 miles , 16 km
Cloud details: Few Clouds 600 ft
2019/08/20 16:53 KSBA 201653Z 15008KT 10SM FEW006 20/16 A2996 RMK AO2 SLP147 T02000161